Isle of Bute, United Kingdom
Current Conditions -  °F | °C
As of 4:20 PM on Sunday 25 Jan 2015 (Local Time) from EGPF Reporting Station
Drizzle Drizzle  
Wind Chill: 41°   Ceiling: 700
Heat Index: 48°   Visibility: 3mi
Dew Point: 46°   Wind: 23mph
Humidity: 93%   Direction: 230°SW
Pressure: 30"   Gusts: NA
Location:  55.84°N, 5.05°W
Report Text: EGPF 251620Z AUTO 23020KT 5000 -DZ OVC007 09/08 Q1016 RERA
Loading
Personal Weather Stations






























Interactive Weather Map New forecast layout! Learn more

10-Day Weather Forecast

Advertisements
Track Severe Weather on mobile